createdAt,value
2018-03-17T00:01:41.203Z,21.65
2018-03-17T00:04:10.734Z,17.57
2018-03-17T00:06:41.270Z,20.70
2018-03-17T00:09:11.279Z,23.30
2018-03-17T00:11:41.005Z,23.90
2018-03-17T00:14:11.447Z,23.17
2018-03-17T00:16:41.530Z,24.80
2018-03-17T00:19:11.342Z,19.58
2018-03-17T00:21:40.745Z,25.20
2018-03-17T00:24:10.610Z,19.90
2018-03-17T00:26:49.682Z,20.15
2018-03-17T00:29:24.369Z,19.27
2018-03-17T00:31:55.887Z,18.00
2018-03-17T00:34:25.706Z,17.87
2018-03-17T00:36:56.018Z,19.35
2018-03-17T00:39:25.615Z,17.65
2018-03-17T00:41:55.816Z,20.55
2018-03-17T00:44:26.929Z,20.88
2018-03-17T00:46:55.775Z,22.15
2018-03-17T00:49:25.399Z,19.80
2018-03-17T00:51:56.966Z,19.70
2018-03-17T00:54:26.405Z,19.80
2018-03-17T00:57:09.191Z,18.25
2018-03-17T00:59:54.326Z,19.00
2018-03-17T01:02:25.404Z,18.20
2018-03-17T01:04:57.105Z,18.23
2018-03-17T01:07:55.582Z,17.77
2018-03-17T01:10:25.650Z,18.50
2018-03-17T01:13:08.622Z,19.17
2018-03-17T01:15:38.291Z,19.25
2018-03-17T01:18:05.851Z,18.98
2018-03-17T01:20:34.135Z,20.20
2018-03-17T01:23:02.433Z,17.80
2018-03-17T01:25:30.706Z,17.42
2018-03-17T01:27:58.997Z,19.75
2018-03-17T01:30:27.284Z,19.05
2018-03-17T01:32:57.097Z,18.00
2018-03-17T01:35:27.278Z,18.17
2018-03-17T01:37:55.981Z,18.77
2018-03-17T01:40:26.623Z,17.33
2018-03-17T01:42:57.130Z,18.37
2018-03-17T01:45:26.002Z,19.58
2018-03-17T01:47:56.114Z,17.75
2018-03-17T01:50:25.774Z,18.20
2018-03-17T01:52:55.241Z,21.05
2018-03-17T01:55:30.778Z,18.50
2018-03-17T01:57:59.087Z,19.05
2018-03-17T02:00:27.130Z,18.15
2018-03-17T02:03:02.190Z,19.37
2018-03-17T02:05:29.693Z,18.62
2018-03-17T02:07:57.982Z,18.33
2018-03-17T02:10:27.223Z,20.23
2018-03-17T02:12:56.995Z,21.30
2018-03-17T02:15:27.523Z,21.80
2018-03-17T02:17:56.326Z,22.95
2018-03-17T02:20:26.370Z,20.77
2018-03-17T02:22:56.762Z,23.12
2018-03-17T02:25:27.094Z,23.27
2018-03-17T02:27:57.101Z,24.45
2018-03-17T02:30:25.817Z,25.30
2018-03-17T02:32:56.770Z,20.77
2018-03-17T02:35:26.230Z,23.08
2018-03-17T02:37:57.087Z,19.87
2018-03-17T02:40:27.258Z,22.55
2018-03-17T02:42:54.808Z,17.48
2018-03-17T02:45:26.903Z,19.67
2018-03-17T02:47:57.281Z,22.40
2018-03-17T02:50:25.572Z,22.42
2018-03-17T02:52:56.373Z,21.15
2018-03-17T02:55:27.105Z,22.27
2018-03-17T02:57:54.677Z,20.23
2018-03-17T03:00:26.350Z,20.55
2018-03-17T03:02:57.147Z,19.50
2018-03-17T03:05:27.000Z,18.67
2018-03-17T03:07:55.859Z,20.77
2018-03-17T03:10:26.416Z,20.02
2018-03-17T03:12:57.154Z,17.15
2018-03-17T03:15:24.826Z,20.77
2018-03-17T03:17:56.398Z,21.08
2018-03-17T03:20:26.917Z,20.10
2018-03-17T03:22:57.297Z,19.45
2018-03-17T03:25:27.034Z,19.83
2018-03-17T03:27:54.542Z,17.65
2018-03-17T03:30:25.355Z,17.70
2018-03-17T03:32:57.571Z,16.23
2018-03-17T03:35:25.106Z,15.50
2018-03-17T03:37:59.538Z,15.07
2018-03-17T03:40:27.754Z,15.88
2018-03-17T03:42:57.790Z,15.65
2018-03-17T03:45:25.305Z,15.23
2018-03-17T03:47:56.328Z,16.77
2018-03-17T03:50:27.494Z,14.85
2018-03-17T03:52:57.286Z,15.68
2018-03-17T03:55:26.688Z,16.55
2018-03-17T03:57:57.261Z,13.77
2018-03-17T04:00:27.490Z,15.65
2018-03-17T04:02:57.511Z,13.70
2018-03-17T04:05:28.312Z,12.55
2018-03-17T04:07:57.568Z,13.25
2018-03-17T04:10:27.613Z,14.13
2018-03-17T04:12:57.670Z,12.27
2018-03-17T04:15:27.913Z,11.02
2018-03-17T04:17:57.937Z,11.90
2018-03-17T04:20:27.618Z,11.68
2018-03-17T04:23:00.931Z,12.10
2018-03-17T04:25:28.472Z,11.88
2018-03-17T04:28:07.474Z,11.93
2018-03-17T04:30:37.972Z,11.38
2018-03-17T04:33:07.042Z,12.05
2018-03-17T04:35:37.985Z,11.98
2018-03-17T04:38:07.916Z,12.77
2018-03-17T04:40:36.881Z,11.20
2018-03-17T04:43:13.390Z,12.40
2018-03-17T04:45:40.943Z,12.50
2018-03-17T04:48:08.469Z,13.45
2018-03-17T04:50:42.694Z,13.05
2018-03-17T04:53:10.217Z,12.37
2018-03-17T04:55:38.485Z,12.70
2018-03-17T04:58:07.946Z,12.55
2018-03-17T05:00:38.086Z,13.10
2018-03-17T05:03:08.145Z,14.82
2018-03-17T05:05:35.790Z,14.10
2018-03-17T05:08:05.041Z,14.55
2018-03-17T05:10:37.773Z,14.77
2018-03-17T05:13:08.156Z,15.00
2018-03-17T05:15:41.029Z,12.57
2018-03-17T05:18:08.560Z,13.52
2018-03-17T05:20:37.984Z,12.50
2018-03-17T05:23:07.890Z,15.20
2018-03-17T05:25:38.093Z,13.77
2018-03-17T05:28:05.609Z,13.50
2018-03-17T05:30:33.110Z,13.45
2018-03-17T05:33:00.630Z,12.02
2018-03-17T05:35:28.972Z,14.02
2018-03-17T05:37:58.243Z,11.50
2018-03-17T05:40:34.310Z,13.35
2018-03-17T05:43:02.600Z,15.65
2018-03-17T05:45:30.106Z,14.50
2018-03-17T05:47:57.654Z,12.18
2018-03-17T05:50:27.517Z,11.20
2018-03-17T05:52:57.366Z,12.25
2018-03-17T05:55:27.696Z,13.10
2018-03-17T05:57:57.197Z,14.68
2018-03-17T06:00:31.603Z,13.50
2018-03-17T06:02:59.130Z,13.93
2018-03-17T06:05:28.634Z,12.18
2018-03-17T06:07:58.433Z,13.20
2018-03-17T06:10:26.493Z,12.27
2018-03-17T06:12:58.274Z,12.70
2018-03-17T06:15:28.427Z,12.37
2018-03-17T06:18:07.102Z,12.32
2018-03-17T06:20:34.714Z,11.18
2018-03-17T06:23:02.992Z,10.15
2018-03-17T06:25:31.277Z,11.93
2018-03-17T06:27:58.806Z,11.00
2018-03-17T06:30:27.561Z,10.38
2018-03-17T06:32:57.910Z,9.85
2018-03-17T06:35:28.510Z,10.20
2018-03-17T06:37:58.322Z,12.75
2018-03-17T06:40:28.560Z,13.32
2018-03-17T06:42:57.510Z,11.30
2018-03-17T06:45:28.298Z,11.57
2018-03-17T06:47:58.686Z,11.88
2018-03-17T06:50:27.308Z,10.55
2018-03-17T06:52:57.902Z,11.30
2018-03-17T06:55:27.682Z,11.38
2018-03-17T06:57:58.312Z,10.38
2018-03-17T07:00:27.686Z,11.48
2018-03-17T07:02:57.388Z,11.02
2018-03-17T07:05:28.026Z,12.93
2018-03-17T07:07:57.609Z,13.35
2018-03-17T07:10:27.573Z,10.98
2018-03-17T07:12:59.893Z,12.27
2018-03-17T07:15:28.494Z,13.15
2018-03-17T07:17:58.687Z,9.88
2018-03-17T07:20:27.877Z,10.70
2018-03-17T07:22:58.386Z,13.80
2018-03-17T07:25:27.541Z,13.90
2018-03-17T07:27:57.627Z,11.50
2018-03-17T07:30:35.837Z,12.70
2018-03-17T07:33:03.342Z,11.10
2018-03-17T07:35:31.653Z,12.40
2018-03-17T07:37:59.162Z,13.70
2018-03-17T07:40:28.954Z,13.90
2018-03-17T07:42:57.513Z,12.43
2018-03-17T07:45:29.125Z,13.20
2018-03-17T07:47:58.842Z,13.82
2018-03-17T07:50:27.409Z,12.32
2018-03-17T07:52:57.518Z,13.48
2018-03-17T07:55:27.792Z,14.35
2018-03-17T07:57:58.629Z,11.52
2018-03-17T08:00:28.862Z,14.93
2018-03-17T08:02:57.890Z,11.75
2018-03-17T08:05:27.557Z,13.30
2018-03-17T08:07:58.041Z,13.90
2018-03-17T08:10:27.627Z,13.62
2018-03-17T08:13:00.698Z,11.70
2018-03-17T08:15:28.293Z,11.05
2018-03-17T08:17:58.006Z,8.75
2018-03-17T08:20:26.685Z,11.80
2018-03-17T08:22:56.698Z,10.27
2018-03-17T08:25:26.022Z,11.20
2018-03-17T08:27:55.699Z,12.18
2018-03-17T08:30:24.270Z,11.27
2018-03-17T08:33:02.966Z,11.77
2018-03-17T08:35:30.473Z,11.68
2018-03-17T08:37:58.102Z,11.52
2018-03-17T08:40:25.880Z,10.50
2018-03-17T08:42:55.081Z,13.15
2018-03-17T08:45:23.491Z,13.18
2018-03-17T08:47:51.373Z,11.57
2018-03-17T08:50:30.228Z,12.48
2018-03-17T08:53:09.246Z,13.30
2018-03-17T08:55:37.768Z,11.88
2018-03-17T08:58:05.305Z,11.32
2018-03-17T09:00:32.812Z,12.65
2018-03-17T09:03:00.338Z,13.35
2018-03-17T09:05:28.619Z,12.30
2018-03-17T09:07:56.219Z,11.70
2018-03-17T09:10:24.502Z,12.37
2018-03-17T09:12:52.412Z,13.48
2018-03-17T09:15:20.907Z,12.20
2018-03-17T09:17:55.242Z,11.70
2018-03-17T09:20:23.306Z,12.63
2018-03-17T09:22:51.286Z,11.52
2018-03-17T09:25:19.892Z,13.45
2018-03-17T09:27:48.662Z,12.10
2018-03-17T09:30:17.833Z,12.55
2018-03-17T09:32:47.845Z,12.45
2018-03-17T09:35:17.008Z,11.43
2018-03-17T09:37:47.587Z,13.25
2018-03-17T09:40:17.216Z,11.38
2018-03-17T09:42:49.349Z,11.20
2018-03-17T09:45:23.773Z,9.70
2018-03-17T09:47:55.260Z,10.38
2018-03-17T09:50:26.014Z,10.43
2018-03-17T09:52:56.035Z,10.98
2018-03-17T09:55:26.594Z,10.82
2018-03-17T09:57:55.810Z,10.95
2018-03-17T10:00:26.142Z,10.88
2018-03-17T10:02:54.952Z,11.35
2018-03-17T10:05:22.602Z,10.43
2018-03-17T10:07:50.882Z,9.65
2018-03-17T10:10:19.970Z,11.30
2018-03-17T10:12:50.023Z,10.55
2018-03-17T10:15:19.551Z,9.70
2018-03-17T10:17:49.893Z,10.38
2018-03-17T10:20:20.016Z,11.20
2018-03-17T10:22:49.846Z,9.93
2018-03-17T10:25:20.138Z,10.85
2018-03-17T10:27:50.710Z,9.93
2018-03-17T10:30:20.155Z,11.50
2018-03-17T10:32:50.883Z,10.15
2018-03-17T10:35:20.001Z,11.93
2018-03-17T10:37:49.718Z,11.00
2018-03-17T10:40:19.288Z,10.40
2018-03-17T10:42:49.062Z,8.37
2018-03-17T10:45:18.873Z,10.30
2018-03-17T10:47:49.110Z,10.50
2018-03-17T10:50:18.741Z,10.60
2018-03-17T10:52:49.723Z,10.73
2018-03-17T10:55:19.082Z,10.00
2018-03-17T10:57:49.168Z,9.80
2018-03-17T11:00:29.176Z,8.43
2018-03-17T11:02:56.673Z,9.63
2018-03-17T11:05:24.957Z,9.80
2018-03-17T11:07:53.244Z,9.30
2018-03-17T11:10:21.552Z,11.67
2018-03-17T11:12:49.945Z,9.87
2018-03-17T11:15:19.177Z,12.03
2018-03-17T11:17:48.869Z,11.07
2018-03-17T11:20:19.886Z,11.63
2018-03-17T11:22:49.750Z,11.10
2018-03-17T11:25:19.086Z,11.57
2018-03-17T11:27:47.955Z,9.57
2018-03-17T11:30:19.642Z,9.50
2018-03-17T11:32:48.789Z,10.60
2018-03-17T11:35:18.788Z,9.30
2018-03-17T11:37:48.327Z,8.32
2018-03-17T11:40:17.914Z,8.80
2018-03-17T11:42:56.727Z,9.60
2018-03-17T11:45:24.251Z,8.30
2018-03-17T11:47:51.792Z,9.93
2018-03-17T11:50:19.920Z,10.30
2018-03-17T11:52:49.399Z,9.33
2018-03-17T11:55:20.113Z,8.70
2018-03-17T11:57:48.834Z,7.27
2018-03-17T12:00:19.642Z,7.37
2018-03-17T12:02:59.079Z,7.20
2018-03-17T12:05:26.618Z,9.00
2018-03-17T12:07:54.138Z,9.53
2018-03-17T12:10:21.642Z,7.10
2018-03-17T12:12:49.254Z,8.50
2018-03-17T12:15:18.825Z,8.40
2018-03-17T12:17:48.778Z,8.13
2018-03-17T12:20:18.007Z,8.98
2018-03-17T12:22:48.180Z,7.50
2018-03-17T12:25:26.893Z,7.60
2018-03-17T12:27:54.447Z,7.55
2018-03-17T12:30:21.955Z,7.72
2018-03-17T12:32:49.834Z,9.00
2018-03-17T12:35:18.833Z,8.15
2018-03-17T12:37:49.407Z,8.60
2018-03-17T12:40:21.617Z,9.18
2018-03-17T12:42:49.869Z,9.45
2018-03-17T12:45:19.214Z,8.97
2018-03-17T12:47:48.203Z,7.93
2018-03-17T12:50:19.219Z,7.70
2018-03-17T12:52:48.177Z,9.95
2018-03-17T12:55:19.576Z,8.00
2018-03-17T12:57:48.855Z,7.57
2018-03-17T13:00:18.927Z,8.07
2018-03-17T13:02:48.215Z,8.68
2018-03-17T13:05:17.749Z,9.10
2018-03-17T13:07:48.101Z,9.50
2018-03-17T13:10:21.533Z,8.25
2018-03-17T13:12:50.082Z,9.88
2018-03-17T13:15:32.722Z,9.52
2018-03-17T13:18:00.273Z,9.60
2018-03-17T13:20:28.571Z,9.30
2018-03-17T13:23:13.739Z,8.13
2018-03-17T13:25:47.227Z,9.40
2018-03-17T13:28:26.977Z,10.30
2018-03-17T13:30:54.501Z,11.38
2018-03-17T13:33:22.015Z,10.13
2018-03-17T13:36:09.313Z,9.00
2018-03-17T13:38:45.590Z,10.05
2018-03-17T13:41:19.041Z,8.85
2018-03-17T13:43:49.593Z,7.75
2018-03-17T13:46:31.165Z,7.68
2018-03-17T13:48:59.047Z,9.18
2018-03-17T13:51:26.611Z,8.55
2018-03-17T13:53:54.138Z,8.68
2018-03-17T13:56:21.657Z,8.88
2018-03-17T13:58:49.949Z,9.27
2018-03-17T14:01:19.441Z,8.23
2018-03-17T14:03:51.156Z,9.20
2018-03-17T14:06:18.741Z,8.15
2018-03-17T14:09:07.561Z,9.27
2018-03-17T14:11:46.515Z,7.60
2018-03-17T14:14:26.046Z,8.18
2018-03-17T14:16:53.627Z,9.95
2018-03-17T14:19:21.138Z,9.20
2018-03-17T14:21:48.666Z,7.85
2018-03-17T14:24:16.698Z,9.05
2018-03-17T14:26:46.119Z,9.10
2018-03-17T14:29:15.998Z,7.65
2018-03-17T14:31:45.865Z,8.95
2018-03-17T14:34:15.313Z,9.70
2018-03-17T14:36:53.229Z,8.73
2018-03-17T14:39:20.794Z,9.48
2018-03-17T14:41:48.486Z,9.40
2018-03-17T14:44:16.774Z,8.98
2018-03-17T14:46:44.382Z,9.10
2018-03-17T14:49:13.295Z,9.07
2018-03-17T14:51:43.899Z,8.38
2018-03-17T14:54:11.570Z,9.45
2018-03-17T14:56:41.347Z,8.23
2018-03-17T14:59:10.754Z,10.52
2018-03-17T15:01:42.737Z,8.73
2018-03-17T15:04:14.582Z,6.62
2018-03-17T15:06:54.606Z,7.45
2018-03-17T15:09:22.920Z,7.85
2018-03-17T15:11:50.470Z,8.02
2018-03-17T15:14:18.760Z,7.30
2018-03-17T15:16:46.430Z,8.55
2018-03-17T15:19:15.620Z,9.65
2018-03-17T15:21:45.758Z,8.70
2018-03-17T15:24:15.384Z,8.68
2018-03-17T15:26:45.325Z,9.32
2018-03-17T15:29:14.450Z,8.60
2018-03-17T15:31:46.186Z,8.48
2018-03-17T15:34:15.426Z,8.88
2018-03-17T15:36:45.864Z,9.50
2018-03-17T15:39:15.731Z,7.78
2018-03-17T15:41:46.082Z,6.87
2018-03-17T15:44:16.121Z,7.82
2018-03-17T15:46:46.436Z,8.40
2018-03-17T15:49:16.151Z,9.43
2018-03-17T15:51:46.293Z,8.65
2018-03-17T15:54:26.049Z,8.80
2018-03-17T15:56:53.557Z,8.15
2018-03-17T15:59:21.841Z,9.02
2018-03-17T16:01:49.337Z,8.77
2018-03-17T16:04:17.725Z,8.70
2018-03-17T16:06:47.877Z,8.63
2018-03-17T16:09:17.505Z,7.90
2018-03-17T16:11:48.282Z,8.57
2018-03-17T16:14:21.873Z,7.47
2018-03-17T16:16:49.375Z,8.32
2018-03-17T16:19:17.814Z,8.63
2018-03-17T16:21:48.959Z,7.32
2018-03-17T16:24:18.574Z,8.85
2018-03-17T16:26:59.106Z,9.10
2018-03-17T16:29:30.625Z,8.25
2018-03-17T16:32:01.662Z,8.38
2018-03-17T16:34:34.538Z,9.18
2018-03-17T16:37:02.265Z,8.30
2018-03-17T16:39:42.054Z,8.55
2018-03-17T16:42:09.692Z,8.70
2018-03-17T16:44:37.953Z,8.90
2018-03-17T16:47:05.474Z,9.55
2018-03-17T16:49:35.702Z,8.90
2018-03-17T16:52:03.984Z,9.50
2018-03-17T16:54:32.993Z,9.75
2018-03-17T16:57:03.441Z,8.43
2018-03-17T16:59:31.228Z,9.73
2018-03-17T17:02:03.037Z,10.07
2018-03-17T17:04:33.019Z,9.45
2018-03-17T17:07:02.714Z,8.75
2018-03-17T17:09:32.117Z,8.38
2018-03-17T17:12:04.338Z,9.82
2018-03-17T17:14:33.770Z,9.77
2018-03-17T17:17:04.137Z,8.85
2018-03-17T17:19:34.122Z,9.05
2018-03-17T17:22:03.085Z,8.27
2018-03-17T17:24:33.985Z,9.25
2018-03-17T17:27:02.984Z,10.20
2018-03-17T17:29:34.242Z,8.30
2018-03-17T17:32:03.882Z,7.07
2018-03-17T17:34:34.785Z,10.02
2018-03-17T17:37:13.186Z,9.63
2018-03-17T17:39:40.687Z,9.05
2018-03-17T17:42:08.205Z,9.32
2018-03-17T17:44:36.484Z,9.82
2018-03-17T17:47:05.362Z,9.25
2018-03-17T17:49:34.465Z,10.07
2018-03-17T17:52:03.949Z,10.23
2018-03-17T17:54:34.262Z,10.40
2018-03-17T17:57:04.158Z,9.88
2018-03-17T17:59:33.904Z,10.25
2018-03-17T18:02:05.128Z,8.60
2018-03-17T18:04:37.785Z,9.40
2018-03-17T18:07:06.024Z,9.35
2018-03-17T18:09:34.161Z,10.95
2018-03-17T18:12:04.999Z,10.77
2018-03-17T18:14:34.417Z,9.18
2018-03-17T18:17:05.222Z,10.10
2018-03-17T18:19:35.103Z,9.65
2018-03-17T18:22:05.602Z,8.85
2018-03-17T18:24:35.380Z,10.20
2018-03-17T18:27:06.723Z,10.32
2018-03-17T18:29:34.393Z,8.90
2018-03-17T18:32:02.507Z,10.65
2018-03-17T18:34:31.754Z,9.93
2018-03-17T18:37:02.190Z,8.88
2018-03-17T18:39:30.936Z,8.98
2018-03-17T18:42:00.180Z,7.60
2018-03-17T18:44:30.734Z,9.77
2018-03-17T18:46:59.660Z,8.80
2018-03-17T18:49:30.273Z,8.32
2018-03-17T18:51:59.089Z,8.85
2018-03-17T18:54:28.943Z,7.80
2018-03-17T18:56:56.931Z,9.82
2018-03-17T18:59:26.778Z,6.95
2018-03-17T19:01:57.955Z,10.20
2018-03-17T19:04:29.895Z,9.80
2018-03-17T19:06:59.376Z,7.80
2018-03-17T19:09:30.552Z,9.50
2018-03-17T19:12:08.854Z,9.30
2018-03-17T19:14:36.515Z,8.77
2018-03-17T19:17:04.024Z,9.45
2018-03-17T19:19:32.561Z,9.15
2018-03-17T19:22:00.854Z,7.30
2018-03-17T19:24:29.134Z,9.63
2018-03-17T19:26:57.402Z,8.65
2018-03-17T19:29:26.295Z,9.40
2018-03-17T19:31:55.463Z,7.75
2018-03-17T19:34:24.835Z,8.43
2018-03-17T19:36:53.706Z,9.20
2018-03-17T19:39:25.698Z,8.93
2018-03-17T19:41:57.073Z,8.85
2018-03-17T19:44:27.066Z,8.20
2018-03-17T19:47:05.278Z,8.55
2018-03-17T19:49:32.818Z,9.10
2018-03-17T19:52:01.092Z,7.78
2018-03-17T19:54:28.602Z,8.45
2018-03-17T19:56:56.933Z,8.52
2018-03-17T19:59:26.385Z,9.05
2018-03-17T20:01:56.078Z,9.25
2018-03-17T20:04:25.722Z,9.30
2018-03-17T20:06:55.672Z,8.95
2018-03-17T20:09:25.238Z,9.15
2018-03-17T20:11:57.305Z,9.48
2018-03-17T20:14:25.865Z,9.55
2018-03-17T20:16:54.872Z,9.35
2018-03-17T20:19:23.717Z,8.85
2018-03-17T20:21:53.641Z,7.82
2018-03-17T20:24:23.352Z,9.40
2018-03-17T20:26:54.830Z,9.82
2018-03-17T20:29:24.641Z,9.68
2018-03-17T20:31:56.099Z,9.02
2018-03-17T20:34:26.146Z,10.43
2018-03-17T20:36:54.655Z,8.80
2018-03-17T20:39:33.592Z,9.32
2018-03-17T20:42:01.117Z,9.85
2018-03-17T20:44:29.403Z,8.25
2018-03-17T20:46:57.682Z,9.63
2018-03-17T20:49:26.808Z,10.07
2018-03-17T20:51:56.225Z,9.18
2018-03-17T20:54:25.654Z,10.25
2018-03-17T20:56:56.498Z,10.05
2018-03-17T20:59:26.621Z,8.45
2018-03-17T21:01:55.949Z,9.00
2018-03-17T21:04:34.479Z,9.50
2018-03-17T21:07:02.038Z,9.95
2018-03-17T21:09:29.533Z,9.00
2018-03-17T21:11:57.422Z,9.52
2018-03-17T21:14:26.907Z,9.60
2018-03-17T21:17:04.978Z,8.55
2018-03-17T21:19:32.753Z,9.95
2018-03-17T21:22:00.374Z,10.65
2018-03-17T21:24:28.664Z,10.00
2018-03-17T21:26:57.551Z,9.63
2018-03-17T21:29:26.870Z,9.55
2018-03-17T21:31:56.923Z,8.73
2018-03-17T21:34:26.357Z,10.25
2018-03-17T21:36:55.383Z,10.52
2018-03-17T21:39:34.950Z,9.75
2018-03-17T21:42:02.457Z,8.85
2018-03-17T21:44:30.838Z,10.13
2018-03-17T21:46:59.104Z,10.25
2018-03-17T21:49:26.942Z,9.32
2018-03-17T21:51:56.773Z,9.23
2018-03-17T21:54:26.354Z,8.75
2018-03-17T21:56:55.966Z,9.90
2018-03-17T21:59:25.545Z,9.15
2018-03-17T22:01:54.740Z,9.32
2018-03-17T22:04:23.086Z,8.70
2018-03-17T22:06:54.216Z,8.88
2018-03-17T22:09:24.127Z,8.23
2018-03-17T22:12:04.129Z,7.95
2018-03-17T22:14:31.717Z,9.75
2018-03-17T22:17:00.023Z,9.20
2018-03-17T22:19:27.586Z,7.53
2018-03-17T22:21:57.355Z,9.13
2018-03-17T22:24:27.493Z,9.55
2018-03-17T22:26:57.757Z,8.52
2018-03-17T22:29:28.123Z,9.98
2018-03-17T22:31:57.994Z,9.70
2018-03-17T22:34:27.598Z,8.15
2018-03-17T22:36:57.762Z,9.85
2018-03-17T22:39:28.936Z,9.65
2018-03-17T22:41:58.154Z,9.80
2018-03-17T22:44:28.233Z,9.55
2018-03-17T22:46:58.382Z,8.52
2018-03-17T22:49:29.299Z,8.90
2018-03-17T22:51:58.943Z,10.07
2018-03-17T22:54:27.970Z,9.50
2018-03-17T22:56:59.300Z,10.27
2018-03-17T22:59:29.212Z,9.20
2018-03-17T23:01:59.180Z,8.77
2018-03-17T23:04:29.199Z,9.82
2018-03-17T23:06:59.353Z,9.50
2018-03-17T23:09:28.304Z,8.35
2018-03-17T23:11:58.029Z,9.55
2018-03-17T23:14:28.263Z,9.20
2018-03-17T23:16:58.487Z,9.20
2018-03-17T23:19:29.025Z,7.53
2018-03-17T23:21:59.336Z,7.32
2018-03-17T23:24:27.667Z,8.35
2018-03-17T23:26:59.349Z,10.77
2018-03-17T23:29:28.975Z,9.10
2018-03-17T23:31:58.864Z,9.45
2018-03-17T23:34:29.401Z,9.13
2018-03-17T23:36:59.298Z,9.85
2018-03-17T23:39:29.315Z,10.35
2018-03-17T23:41:59.618Z,10.65
2018-03-17T23:44:38.347Z,10.98
2018-03-17T23:47:05.876Z,9.32
2018-03-17T23:49:33.534Z,10.45
2018-03-17T23:52:01.814Z,7.25
2018-03-17T23:54:29.608Z,10.15
2018-03-17T23:56:57.558Z,10.20
2018-03-17T23:59:36.388Z,10.25
